Time,TemperatureF,DewpointF,PressureIn,WindDirection,WindDirectionDegrees,WindSpeedMPH,WindSpeedGustMPH,Humidity,HourlyPrecipIn,Conditions,Clouds,dailyrainin,SoftwareType,DateUTC
2013-04-27 00:03:00,50.2,48.8,30.14,East,91,7.0,9.0,95,0.00,RA,RA,0.00,WeatherDisplay:10.37,2013-04-27 05:03:00,
2013-04-27 00:09:00,50.0,48.6,30.14,East,89,6.0,7.0,95,0.00,RA,RA,0.00,WeatherDisplay:10.37,2013-04-27 05:09:00,
2013-04-27 00:15:00,50.0,48.9,30.14,East,81,5.0,7.0,96,0.00,OVC,OVC,0.00,WeatherDisplay:10.37,2013-04-27 05:15:00,
2013-04-27 00:21:00,49.9,48.8,30.14,ENE,73,5.0,6.0,96,0.00,OVC,OVC,0.00,WeatherDisplay:10.37,2013-04-27 05:21:00,
2013-04-27 00:27:00,49.7,48.6,30.14,ENE,66,7.0,8.0,96,0.00,OVC,OVC,0.00,WeatherDisplay:10.37,2013-04-27 05:27:00,
2013-04-27 00:33:00,49.7,48.6,30.14,ENE,75,2.0,7.0,96,0.00,OVC,OVC,0.00,WeatherDisplay:10.37,2013-04-27 05:33:00,
2013-04-27 00:39:00,49.7,48.6,30.14,East,84,3.0,8.0,96,0.00,OVC,OVC,0.00,WeatherDisplay:10.37,2013-04-27 05:39:00,
2013-04-27 00:45:00,49.5,48.9,30.14,NE,42,3.0,6.0,98,0.00,OVC,OVC,0.00,WeatherDisplay:10.37,2013-04-27 05:45:00,
2013-04-27 00:51:00,49.5,48.9,30.14,ENE,76,3.0,6.0,98,0.00,OVC,OVC,0.00,WeatherDisplay:10.37,2013-04-27 05:51:00,
2013-04-27 00:57:00,49.5,48.9,30.14,East,86,2.0,4.0,98,0.00,OVC,OVC,0.00,WeatherDisplay:10.37,2013-04-27 05:57:00,
2013-04-27 01:03:00,49.5,48.9,30.15,SE,144,2.0,6.0,98,0.00,OVC,OVC,0.00,WeatherDisplay:10.37,2013-04-27 06:03:00,
2013-04-27 01:09:00,49.3,48.7,30.15,ENE,67,5.0,7.0,98,0.00,OVC,OVC,0.00,WeatherDisplay:10.37,2013-04-27 06:09:00,
2013-04-27 01:15:00,49.3,48.7,30.14,ENE,64,3.0,8.0,98,0.00,OVC,OVC,0.00,WeatherDisplay:10.37,2013-04-27 06:15:00,
2013-04-27 01:21:00,49.3,48.7,30.14,ENE,68,2.0,6.0,98,0.00,OVC,OVC,0.00,WeatherDisplay:10.37,2013-04-27 06:21:00,
2013-04-27 01:27:00,49.3,48.7,30.14,ENE,75,3.0,5.0,98,0.00,OVC,OVC,0.00,WeatherDisplay:10.37,2013-04-27 06:27:00,
2013-04-27 01:33:00,49.3,49.0,30.14,NE,55,3.0,6.0,99,0.00,OVC,OVC,0.00,WeatherDisplay:10.37,2013-04-27 06:33:00,
2013-04-27 01:39:00,49.3,49.0,30.14,ENE,70,5.0,7.0,99,0.00,OVC,OVC,0.00,WeatherDisplay:10.37,2013-04-27 06:39:00,
2013-04-27 01:45:00,49.1,48.8,30.14,East,79,2.0,5.0,99,0.00,OVC,OVC,0.00,WeatherDisplay:10.37,2013-04-27 06:45:00,
2013-04-27 01:51:00,49.1,48.8,30.14,ENE,69,0.0,4.0,99,0.00,OVC,OVC,0.00,WeatherDisplay:10.37,2013-04-27 06:51:00,
2013-04-27 01:57:00,49.0,48.7,30.14,East,83,5.0,8.0,99,0.00,OVC,OVC,0.00,WeatherDisplay:10.37,2013-04-27 06:57:00,
2013-04-27 02:03:00,49.0,48.7,30.13,East,98,2.0,6.0,99,0.00,OVC,OVC,0.00,WeatherDisplay:10.37,2013-04-27 07:03:00,
2013-04-27 02:09:00,49.0,48.7,30.13,ENE,78,3.0,5.0,99,0.00,OVC,OVC,0.00,WeatherDisplay:10.37,2013-04-27 07:09:00,
2013-04-27 02:15:00,48.8,48.5,30.13,NE,49,5.0,6.0,99,0.00,OVC,OVC,0.00,WeatherDisplay:10.37,2013-04-27 07:15:00,
2013-04-27 02:21:00,48.6,48.3,30.13,East,79,6.0,7.0,99,0.00,OVC,OVC,0.00,WeatherDisplay:10.37,2013-04-27 07:21:00,
2013-04-27 02:27:00,48.6,48.3,30.13,East,83,3.0,8.0,99,0.00,OVC,OVC,0.00,WeatherDisplay:10.37,2013-04-27 07:27:00,
2013-04-27 02:33:00,48.6,48.3,30.13,ENE,70,2.0,4.0,99,0.00,OVC,OVC,0.00,WeatherDisplay:10.37,2013-04-27 07:33:00,
2013-04-27 02:39:00,48.6,48.3,30.12,NE,40,5.0,5.0,99,0.00,OVC,OVC,0.00,WeatherDisplay:10.37,2013-04-27 07:39:00,
2013-04-27 02:45:00,48.3,48.0,30.12,ENE,69,5.0,9.0,99,0.00,OVC,OVC,0.00,WeatherDisplay:10.37,2013-04-27 07:45:00,
2013-04-27 02:51:00,48.2,47.9,30.12,ENE,75,1.0,6.0,99,0.00,OVC,OVC,0.00,WeatherDisplay:10.37,2013-04-27 07:51:00,
2013-04-27 02:57:00,48.2,47.9,30.12,NNE,21,0.0,6.0,99,0.00,OVC,OVC,0.00,WeatherDisplay:10.37,2013-04-27 07:57:00,
2013-04-27 03:03:00,48.2,47.9,30.12,NNE,25,3.0,7.0,99,0.00,OVC,OVC,0.00,WeatherDisplay:10.37,2013-04-27 08:03:00,
2013-04-27 03:09:00,48.2,47.9,30.12,NNE,21,3.0,7.0,99,0.00,OVC,OVC,0.00,WeatherDisplay:10.37,2013-04-27 08:09:00,
2013-04-27 03:15:00,48.2,47.9,30.11,North,9,3.0,7.0,99,0.00,OVC,OVC,0.00,WeatherDisplay:10.37,2013-04-27 08:15:00,
2013-04-27 03:21:00,48.2,47.9,30.11,NNW,340,2.0,6.0,99,0.00,OVC,OVC,0.00,WeatherDisplay:10.37,2013-04-27 08:21:00,
2013-04-27 03:27:00,48.2,47.9,30.11,NNE,14,3.0,4.0,99,0.00,OVC,OVC,0.00,WeatherDisplay:10.37,2013-04-27 08:27:00,
2013-04-27 03:33:00,48.2,47.9,30.11,NE,40,3.0,7.0,99,0.00,OVC,OVC,0.00,WeatherDisplay:10.37,2013-04-27 08:33:00,
2013-04-27 03:39:00,48.2,47.9,30.11,NNE,19,3.0,7.0,99,0.00,OVC,OVC,0.00,WeatherDisplay:10.37,2013-04-27 08:39:00,
2013-04-27 03:45:00,48.2,47.9,30.11,North,352,6.0,9.0,99,0.00,OVC,OVC,0.00,WeatherDisplay:10.37,2013-04-27 08:45:00,
2013-04-27 03:51:00,48.2,47.9,30.11,NNW,339,2.0,4.0,99,0.00,OVC,OVC,0.00,WeatherDisplay:10.37,2013-04-27 08:51:00,
2013-04-27 03:57:00,48.2,47.9,30.11,North,11,2.0,4.0,99,0.00,OVC,OVC,0.00,WeatherDisplay:10.37,2013-04-27 08:57:00,
2013-04-27 04:03:00,48.2,47.9,30.11,NNE,13,5.0,7.0,99,0.00,OVC,OVC,0.00,WeatherDisplay:10.37,2013-04-27 09:03:00,
2013-04-27 04:09:00,48.1,47.8,30.11,North,358,5.0,9.0,99,0.00,OVC,OVC,0.00,WeatherDisplay:10.37,2013-04-27 09:09:00,
2013-04-27 04:15:00,48.1,47.8,30.10,NNW,332,5.0,7.0,99,0.00,OVC,OVC,0.00,WeatherDisplay:10.37,2013-04-27 09:15:00,
2013-04-27 04:21:00,48.1,47.8,30.10,NNE,21,5.0,7.0,99,0.00,OVC,OVC,0.00,WeatherDisplay:10.37,2013-04-27 09:21:00,
2013-04-27 04:27:00,48.1,47.8,30.11,North,5,2.0,7.0,99,0.00,OVC,OVC,0.00,WeatherDisplay:10.37,2013-04-27 09:27:00,
2013-04-27 04:33:00,48.1,47.8,30.11,NE,54,3.0,5.0,99,0.00,OVC,OVC,0.00,WeatherDisplay:10.37,2013-04-27 09:33:00,
2013-04-27 04:39:00,48.1,47.8,30.11,NE,35,3.0,7.0,99,0.00,OVC,OVC,0.00,WeatherDisplay:10.37,2013-04-27 09:39:00,
2013-04-27 04:45:00,48.1,47.8,30.11,NE,45,2.0,4.0,99,0.00,OVC,OVC,0.00,WeatherDisplay:10.37,2013-04-27 09:45:00,
2013-04-27 04:51:00,48.1,47.8,30.10,NE,44,2.0,5.0,99,0.00,OVC,OVC,0.00,WeatherDisplay:10.37,2013-04-27 09:51:00,
2013-04-27 04:57:00,48.1,47.8,30.10,NNW,340,2.0,6.0,99,0.00,OVC,OVC,0.00,WeatherDisplay:10.37,2013-04-27 09:57:00,
2013-04-27 05:03:00,48.1,47.8,30.10,North,349,3.0,6.0,99,0.00,-RA,-RA,0.00,WeatherDisplay:10.37,2013-04-27 10:03:00,
2013-04-27 05:09:00,48.1,47.8,30.10,NNE,17,1.0,2.0,99,0.01,-RA,-RA,0.01,WeatherDisplay:10.37,2013-04-27 10:09:00,
2013-04-27 05:15:00,48.1,47.8,30.10,NNW,341,2.0,5.0,99,0.00,-RA,-RA,0.01,WeatherDisplay:10.37,2013-04-27 10:15:00,
2013-04-27 05:21:00,48.1,47.8,30.10,NNW,334,2.0,4.0,99,0.00,-RA,-RA,0.01,WeatherDisplay:10.37,2013-04-27 10:21:00,
2013-04-27 05:27:00,48.1,47.8,30.10,NNW,346,2.0,3.0,99,0.00,-RA,-RA,0.01,WeatherDisplay:10.37,2013-04-27 10:27:00,
2013-04-27 05:33:00,48.1,47.8,30.10,NNW,339,2.0,3.0,99,0.00,-RA,-RA,0.01,WeatherDisplay:10.37,2013-04-27 10:33:00,
2013-04-27 05:39:00,48.1,47.8,30.11,NW,323,3.0,5.0,99,0.00,-RA,-RA,0.01,WeatherDisplay:10.37,2013-04-27 10:39:00,
2013-04-27 05:45:00,48.1,47.8,30.11,NNW,330,5.0,7.0,99,0.00,-RA,-RA,0.01,WeatherDisplay:10.37,2013-04-27 10:45:00,
2013-04-27 05:51:00,48.1,47.8,30.11,NNW,329,3.0,7.0,99,0.00,-RA,-RA,0.01,WeatherDisplay:10.37,2013-04-27 10:51:00,
2013-04-27 05:57:00,48.1,47.8,30.11,NW,315,3.0,5.0,99,0.00,-RA,-RA,0.01,WeatherDisplay:10.37,2013-04-27 10:57:00,
2013-04-27 06:03:00,48.1,47.8,30.10,NW,322,3.0,6.0,99,0.00,-RA,-RA,0.02,WeatherDisplay:10.37,2013-04-27 11:03:00,
2013-04-27 06:09:00,48.1,47.8,30.10,NNW,334,5.0,6.0,99,0.00,-RA,-RA,0.02,WeatherDisplay:10.37,2013-04-27 11:09:00,
2013-04-27 06:15:00,48.1,47.8,30.10,NNW,347,6.0,7.0,99,0.00,-RA,-RA,0.02,WeatherDisplay:10.37,2013-04-27 11:15:00,
2013-04-27 06:21:00,48.1,47.8,30.10,NW,326,6.0,7.0,99,0.00,-RA,-RA,0.02,WeatherDisplay:10.37,2013-04-27 11:21:00,
2013-04-27 06:27:00,48.1,47.8,30.11,NNW,336,5.0,7.0,99,0.00,-RA,-RA,0.02,WeatherDisplay:10.37,2013-04-27 11:27:00,
2013-04-27 06:33:00,48.1,47.8,30.11,NW,309,5.0,8.0,99,0.00,-RA,-RA,0.02,WeatherDisplay:10.37,2013-04-27 11:33:00,
2013-04-27 06:39:00,47.9,47.6,30.11,NW,310,6.0,9.0,99,0.00,-RA,-RA,0.02,WeatherDisplay:10.37,2013-04-27 11:39:00,
2013-04-27 06:45:00,47.9,47.6,30.11,NNW,337,6.0,7.0,99,0.00,-RA,-RA,0.02,WeatherDisplay:10.37,2013-04-27 11:45:00,
2013-04-27 06:51:00,47.9,47.6,30.11,WNW,303,5.0,5.0,99,0.00,-RA,-RA,0.02,WeatherDisplay:10.37,2013-04-27 11:51:00,
2013-04-27 06:57:00,47.9,47.6,30.11,WNW,301,3.0,6.0,99,0.00,-RA,-RA,0.02,WeatherDisplay:10.37,2013-04-27 11:57:00,
2013-04-27 07:03:00,47.9,47.6,30.12,North,351,5.0,7.0,99,0.00,OVC,OVC,0.02,WeatherDisplay:10.37,2013-04-27 12:03:00,
2013-04-27 07:09:00,47.9,47.6,30.12,North,6,5.0,7.0,99,0.00,OVC,OVC,0.02,WeatherDisplay:10.37,2013-04-27 12:09:00,
2013-04-27 07:15:00,47.9,47.6,30.11,NNW,346,7.0,7.0,99,0.00,OVC,OVC,0.02,WeatherDisplay:10.37,2013-04-27 12:15:00,
2013-04-27 07:21:00,48.1,47.8,30.11,NNW,336,5.0,9.0,99,0.00,OVC,OVC,0.02,WeatherDisplay:10.37,2013-04-27 12:21:00,
2013-04-27 07:27:00,48.1,47.8,30.12,NNW,337,6.0,8.0,99,0.00,OVC,OVC,0.02,WeatherDisplay:10.37,2013-04-27 12:27:00,
2013-04-27 07:33:00,48.2,47.9,30.12,North,3,7.0,9.0,99,0.00,OVC,OVC,0.02,WeatherDisplay:10.37,2013-04-27 12:33:00,
2013-04-27 07:39:00,48.2,47.9,30.12,North,354,6.0,9.0,99,0.00,OVC,OVC,0.02,WeatherDisplay:10.37,2013-04-27 12:39:00,
2013-04-27 07:45:00,48.2,47.9,30.12,NNW,345,6.0,9.0,99,0.00,OVC,OVC,0.02,WeatherDisplay:10.37,2013-04-27 12:45:00,
2013-04-27 07:51:00,48.2,47.9,30.12,North,6,3.0,4.0,99,0.00,OVC,OVC,0.02,WeatherDisplay:10.37,2013-04-27 12:51:00,
2013-04-27 07:57:00,48.4,48.1,30.12,NNW,348,6.0,8.0,99,0.00,OVC,OVC,0.02,WeatherDisplay:10.37,2013-04-27 12:57:00,
2013-04-27 08:03:00,48.4,48.1,30.12,NNW,337,3.0,5.0,99,0.00,OVC,OVC,0.02,WeatherDisplay:10.37,2013-04-27 13:03:00,
2013-04-27 08:09:00,48.4,48.1,30.12,NW,315,6.0,9.0,99,0.00,OVC,OVC,0.02,WeatherDisplay:10.37,2013-04-27 13:09:00,
2013-04-27 08:15:00,48.4,48.1,30.12,WNW,302,5.0,10.0,99,0.00,OVC,OVC,0.02,WeatherDisplay:10.37,2013-04-27 13:15:00,
2013-04-27 08:21:00,48.4,47.8,30.12,NW,317,8.0,14.0,98,0.00,OVC,OVC,0.02,WeatherDisplay:10.37,2013-04-27 13:21:00,
2013-04-27 08:27:00,48.6,48.0,30.12,NW,307,6.0,9.0,98,0.00,OVC,OVC,0.02,WeatherDisplay:10.37,2013-04-27 13:27:00,
2013-04-27 08:33:00,48.8,48.2,30.12,NNW,327,5.0,7.0,98,0.00,OVC,OVC,0.02,WeatherDisplay:10.37,2013-04-27 13:33:00,
2013-04-27 08:39:00,49.0,48.4,30.13,NNW,329,6.0,10.0,98,0.00,OVC,OVC,0.02,WeatherDisplay:10.37,2013-04-27 13:39:00,
2013-04-27 08:48:00,49.1,48.0,30.13,ESE,112,7.0,12.0,96,0.00,OVC,OVC,0.02,WeatherDisplay:10.37,2013-04-27 13:48:00,
2013-04-27 08:54:00,49.3,47.9,30.12,North,357,8.0,10.0,95,0.00,OVC,OVC,0.02,WeatherDisplay:10.37,2013-04-27 13:54:00,
2013-04-27 09:00:00,49.6,48.2,30.13,NNE,28,5.0,9.0,95,0.00,OVC,OVC,0.02,WeatherDisplay:10.37,2013-04-27 14:00:00,
2013-04-27 09:06:00,49.9,48.5,30.13,North,354,3.0,9.0,95,0.00,OVC,OVC,0.02,WeatherDisplay:10.37,2013-04-27 14:06:00,
2013-04-27 09:12:00,49.9,48.3,30.13,NNW,344,5.0,7.0,94,0.00,OVC,OVC,0.02,WeatherDisplay:10.37,2013-04-27 14:12:00,
2013-04-27 09:18:00,50.1,48.4,30.14,NNW,346,3.0,5.0,94,0.00,OVC,OVC,0.02,WeatherDisplay:10.37,2013-04-27 14:18:00,
2013-04-27 09:24:00,50.2,48.6,30.14,NNW,346,6.0,7.0,94,0.00,OVC,OVC,0.02,WeatherDisplay:10.37,2013-04-27 14:24:00,
2013-04-27 09:30:00,50.4,48.4,30.14,NE,46,6.0,9.0,93,0.00,OVC,OVC,0.02,WeatherDisplay:10.37,2013-04-27 14:30:00,
2013-04-27 09:36:00,50.6,48.6,30.14,ENE,68,3.0,6.0,93,0.00,OVC,OVC,0.02,WeatherDisplay:10.37,2013-04-27 14:36:00,
2013-04-27 09:42:00,50.8,48.8,30.13,NNE,14,3.0,7.0,93,0.00,OVC,OVC,0.02,WeatherDisplay:10.37,2013-04-27 14:42:00,
2013-04-27 09:48:00,50.9,48.9,30.13,North,8,3.0,7.0,93,0.00,OVC,OVC,0.02,WeatherDisplay:10.37,2013-04-27 14:48:00,
2013-04-27 09:54:00,51.3,49.3,30.13,North,349,1.0,5.0,93,0.00,OVC,OVC,0.02,WeatherDisplay:10.37,2013-04-27 14:54:00,
2013-04-27 10:00:00,51.3,49.3,30.13,WNW,302,5.0,6.0,93,0.00,OVC,OVC,0.02,WeatherDisplay:10.37,2013-04-27 15:00:00,
2013-04-27 10:06:00,51.3,49.3,30.13,NW,323,3.0,7.0,93,0.00,OVC,OVC,0.02,WeatherDisplay:10.37,2013-04-27 15:06:00,
2013-04-27 10:12:00,51.3,49.3,30.13,NNE,14,7.0,8.0,93,0.00,OVC,OVC,0.02,WeatherDisplay:10.37,2013-04-27 15:12:00,
2013-04-27 10:18:00,51.3,49.3,30.13,NW,314,6.0,12.0,93,0.00,OVC,OVC,0.02,WeatherDisplay:10.37,2013-04-27 15:18:00,
2013-04-27 10:24:00,51.3,49.3,30.13,NNW,332,5.0,7.0,93,0.00,OVC,OVC,0.02,WeatherDisplay:10.37,2013-04-27 15:24:00,
2013-04-27 10:30:00,51.3,49.3,30.13,NW,309,5.0,8.0,93,0.00,OVC,OVC,0.02,WeatherDisplay:10.37,2013-04-27 15:30:00,
2013-04-27 10:36:00,51.6,49.6,30.13,WNW,296,3.0,5.0,93,0.00,OVC,OVC,0.02,WeatherDisplay:10.37,2013-04-27 15:36:00,
2013-04-27 10:42:00,51.7,49.4,30.14,NW,321,5.0,10.0,92,0.00,OVC,OVC,0.02,WeatherDisplay:10.37,2013-04-27 15:42:00,
2013-04-27 10:48:00,51.9,49.6,30.14,NW,312,3.0,7.0,92,0.00,OVC,OVC,0.02,WeatherDisplay:10.37,2013-04-27 15:48:00,
2013-04-27 10:54:00,51.8,49.6,30.14,NW,322,3.0,7.0,92,0.00,OVC,OVC,0.02,WeatherDisplay:10.37,2013-04-27 15:54:00,
2013-04-27 11:00:00,52.2,49.9,30.14,NW,319,6.0,8.0,92,0.00,OVC,OVC,0.02,WeatherDisplay:10.37,2013-04-27 16:00:00,
2013-04-27 11:06:00,52.2,49.9,30.14,NNW,345,7.0,7.0,92,0.00,OVC,OVC,0.02,WeatherDisplay:10.37,2013-04-27 16:06:00,
2013-04-27 11:12:00,51.8,49.5,30.14,NW,311,5.0,7.0,92,0.00,OVC,OVC,0.02,WeatherDisplay:10.37,2013-04-27 16:12:00,
2013-04-27 11:18:00,51.8,49.5,30.14,WNW,299,5.0,7.0,92,0.00,OVC,OVC,0.02,WeatherDisplay:10.37,2013-04-27 16:18:00,
2013-04-27 11:24:00,51.8,49.5,30.14,NW,309,2.0,6.0,92,0.00,OVC,OVC,0.02,WeatherDisplay:10.37,2013-04-27 16:24:00,
2013-04-27 11:30:00,51.8,49.5,30.15,North,359,6.0,12.0,92,0.00,OVC,OVC,0.02,WeatherDisplay:10.37,2013-04-27 16:30:00,
2013-04-27 11:36:00,51.8,49.5,30.15,NNW,330,6.0,9.0,92,0.00,OVC,OVC,0.02,WeatherDisplay:10.37,2013-04-27 16:36:00,
2013-04-27 11:42:00,52.0,49.7,30.15,NW,310,3.0,6.0,92,0.00,OVC,OVC,0.02,WeatherDisplay:10.37,2013-04-27 16:42:00,
2013-04-27 11:48:00,52.0,49.7,30.15,WNW,300,5.0,6.0,92,0.00,OVC,OVC,0.02,WeatherDisplay:10.37,2013-04-27 16:48:00,
2013-04-27 11:54:00,52.0,49.7,30.15,NNW,343,8.0,12.0,92,0.00,OVC,OVC,0.02,WeatherDisplay:10.37,2013-04-27 16:54:00,
2013-04-27 12:00:00,52.6,50.3,30.15,NNW,344,5.0,8.0,92,0.00,OVC,OVC,0.02,WeatherDisplay:10.37,2013-04-27 17:00:00,
2013-04-27 12:06:00,52.9,50.6,30.15,NW,315,3.0,10.0,92,0.00,OVC,OVC,0.02,WeatherDisplay:10.37,2013-04-27 17:06:00,
2013-04-27 12:12:00,53.1,50.8,30.15,North,1,5.0,5.0,92,0.00,OVC,OVC,0.02,WeatherDisplay:10.37,2013-04-27 17:12:00,
2013-04-27 12:18:00,53.3,50.7,30.14,NNE,26,6.0,7.0,91,0.00,OVC,OVC,0.02,WeatherDisplay:10.37,2013-04-27 17:18:00,
2013-04-27 12:24:00,53.3,50.7,30.14,NW,324,5.0,7.0,91,0.00,OVC,OVC,0.02,WeatherDisplay:10.37,2013-04-27 17:24:00,
2013-04-27 12:30:00,52.9,50.3,30.15,WNW,302,8.0,9.0,91,0.00,OVC,OVC,0.02,WeatherDisplay:10.37,2013-04-27 17:30:00,
2013-04-27 12:36:00,52.7,50.4,30.15,NW,317,7.0,9.0,92,0.00,OVC,OVC,0.02,WeatherDisplay:10.37,2013-04-27 17:36:00,
2013-04-27 12:42:00,52.7,50.4,30.14,NW,313,6.0,9.0,92,0.00,OVC,OVC,0.02,WeatherDisplay:10.37,2013-04-27 17:42:00,
2013-04-27 12:48:00,52.8,50.5,30.14,NW,324,5.0,9.0,92,0.00,OVC,OVC,0.02,WeatherDisplay:10.37,2013-04-27 17:48:00,
2013-04-27 12:54:00,53.1,50.8,30.14,NNW,345,6.0,9.0,92,0.00,OVC,OVC,0.02,WeatherDisplay:10.37,2013-04-27 17:54:00,
2013-04-27 13:00:00,53.4,51.1,30.14,NNW,329,3.0,10.0,92,0.00,OVC,OVC,0.02,WeatherDisplay:10.37,2013-04-27 18:00:00,
2013-04-27 13:06:00,53.9,51.3,30.14,WNW,295,5.0,9.0,91,0.00,OVC,OVC,0.02,WeatherDisplay:10.37,2013-04-27 18:06:00,
2013-04-27 13:12:00,54.4,51.8,30.14,NW,321,3.0,6.0,91,0.00,OVC,OVC,0.02,WeatherDisplay:10.37,2013-04-27 18:12:00,
2013-04-27 13:18:00,54.8,51.6,30.14,NW,325,0.0,2.0,89,0.00,OVC,OVC,0.02,WeatherDisplay:10.37,2013-04-27 18:18:00,
2013-04-27 13:24:00,54.5,51.3,30.14,East,82,3.0,8.0,89,0.00,OVC,OVC,0.02,WeatherDisplay:10.37,2013-04-27 18:24:00,
2013-04-27 13:30:00,55.8,52.3,30.13,North,355,2.0,6.0,88,0.00,OVC,OVC,0.02,WeatherDisplay:10.37,2013-04-27 18:30:00,
2013-04-27 13:36:00,56.0,52.5,30.13,NW,321,2.0,7.0,88,0.00,OVC,OVC,0.02,WeatherDisplay:10.37,2013-04-27 18:36:00,
2013-04-27 13:42:00,55.8,52.0,30.13,NNW,342,6.0,7.0,87,0.00,OVC,OVC,0.02,WeatherDisplay:10.37,2013-04-27 18:42:00,
2013-04-27 13:48:00,56.3,52.5,30.13,North,353,2.0,7.0,87,0.00,OVC,OVC,0.02,WeatherDisplay:10.37,2013-04-27 18:48:00,
2013-04-27 13:54:00,56.7,52.8,30.12,WNW,289,3.0,6.0,87,0.00,OVC,OVC,0.02,WeatherDisplay:10.37,2013-04-27 18:54:00,
2013-04-27 14:00:00,57.1,52.9,30.12,North,2,5.0,6.0,86,0.00,OVC,OVC,0.02,WeatherDisplay:10.37,2013-04-27 19:00:00,
2013-04-27 14:06:00,56.8,53.0,30.12,East,90,3.0,6.0,87,0.00,OVC,OVC,0.02,WeatherDisplay:10.37,2013-04-27 19:06:00,
2013-04-27 14:12:00,56.9,52.7,30.11,NW,319,6.0,9.0,86,0.00,OVC,OVC,0.02,WeatherDisplay:10.37,2013-04-27 19:12:00,
2013-04-27 14:18:00,56.9,53.0,30.11,NW,326,6.0,9.0,87,0.00,OVC,OVC,0.02,WeatherDisplay:10.37,2013-04-27 19:18:00,
2013-04-27 14:24:00,56.8,53.0,30.11,NW,309,5.0,12.0,87,0.00,OVC,OVC,0.02,WeatherDisplay:10.37,2013-04-27 19:24:00,
2013-04-27 14:30:00,56.3,52.5,30.11,WNW,303,7.0,9.0,87,0.00,OVC,OVC,0.02,WeatherDisplay:10.37,2013-04-27 19:30:00,
2013-04-27 14:36:00,57.1,53.3,30.11,NW,304,5.0,9.0,87,0.00,OVC,OVC,0.02,WeatherDisplay:10.37,2013-04-27 19:36:00,
2013-04-27 14:42:00,57.7,53.5,30.10,NW,307,7.0,9.0,86,0.00,OVC,OVC,0.02,WeatherDisplay:10.37,2013-04-27 19:42:00,
2013-04-27 14:48:00,59.5,54.0,30.10,NW,310,5.0,7.0,82,0.00,OVC,OVC,0.02,WeatherDisplay:10.37,2013-04-27 19:48:00,
2013-04-27 14:54:00,61.5,54.6,30.10,WNW,297,3.0,6.0,78,0.00,OVC,OVC,0.02,WeatherDisplay:10.37,2013-04-27 19:54:00,
2013-04-27 15:00:00,60.8,54.2,30.10,NNW,342,5.0,7.0,79,0.00,OVC,OVC,0.02,WeatherDisplay:10.37,2013-04-27 20:00:00,
2013-04-27 15:06:00,61.0,54.1,30.09,ENE,66,5.0,7.0,78,0.00,SCT,SCT,0.02,WeatherDisplay:10.37,2013-04-27 20:06:00,
2013-04-27 15:12:00,62.1,54.5,30.09,NE,38,3.0,7.0,76,0.00,SCT,SCT,0.02,WeatherDisplay:10.37,2013-04-27 20:12:00,
2013-04-27 15:18:00,62.1,54.1,30.09,North,353,5.0,6.0,75,0.00,SCT,SCT,0.02,WeatherDisplay:10.37,2013-04-27 20:18:00,
2013-04-27 15:24:00,62.3,53.6,30.09,NW,323,3.0,5.0,73,0.00,SCT,SCT,0.02,WeatherDisplay:10.37,2013-04-27 20:24:00,
2013-04-27 15:30:00,63.1,53.9,30.08,WNW,291,9.0,14.0,72,0.00,SCT,SCT,0.02,WeatherDisplay:10.37,2013-04-27 20:30:00,
2013-04-27 15:36:00,64.3,54.3,30.08,North,350,5.0,9.0,70,0.00,SCT,SCT,0.02,WeatherDisplay:10.37,2013-04-27 20:36:00,
2013-04-27 15:42:00,63.4,54.2,30.08,North,356,5.0,7.0,72,0.00,SCT,SCT,0.02,WeatherDisplay:10.37,2013-04-27 20:42:00,
2013-04-27 15:48:00,64.1,54.5,30.08,NW,325,6.0,9.0,71,0.00,SCT,SCT,0.02,WeatherDisplay:10.37,2013-04-27 20:48:00,
2013-04-27 15:57:00,66.1,54.8,30.08,North,3,5.0,7.0,67,0.00,SCT,SCT,0.02,WeatherDisplay:10.37,2013-04-27 20:57:00,
2013-04-27 16:03:00,65.5,54.2,30.07,North,9,2.0,5.0,67,0.00,BKN,BKN,0.02,WeatherDisplay:10.37,2013-04-27 21:03:00,
2013-04-27 16:09:00,64.0,53.6,30.07,East,89,6.0,7.0,69,0.00,BKN,BKN,0.02,WeatherDisplay:10.37,2013-04-27 21:09:00,
2013-04-27 16:15:00,65.4,53.8,30.07,NE,48,5.0,7.0,66,0.00,BKN,BKN,0.02,WeatherDisplay:10.37,2013-04-27 21:15:00,
2013-04-27 16:21:00,65.8,54.6,30.07,NW,310,3.0,8.0,67,0.00,BKN,BKN,0.02,WeatherDisplay:10.37,2013-04-27 21:21:00,
2013-04-27 16:27:00,64.2,53.0,30.06,NNW,341,5.0,9.0,67,0.00,BKN,BKN,0.02,WeatherDisplay:10.37,2013-04-27 21:27:00,
2013-04-27 16:33:00,66.2,54.1,30.06,NW,315,3.0,9.0,65,0.00,SCT,SCT,0.02,WeatherDisplay:10.37,2013-04-27 21:33:00,
2013-04-27 16:39:00,66.2,54.5,30.05,NNW,334,3.0,7.0,66,0.00,SCT,SCT,0.02,WeatherDisplay:10.37,2013-04-27 21:39:00,
2013-04-27 16:45:00,66.0,53.9,30.05,NNW,335,5.0,5.0,65,0.00,SCT,SCT,0.02,WeatherDisplay:10.37,2013-04-27 21:45:00,
2013-04-27 16:51:00,65.4,54.1,30.05,North,352,5.0,7.0,67,0.00,SCT,SCT,0.02,WeatherDisplay:10.37,2013-04-27 21:51:00,
2013-04-27 16:57:00,65.5,53.0,30.05,NNE,23,3.0,7.0,64,0.00,SCT,SCT,0.02,WeatherDisplay:10.37,2013-04-27 21:57:00,
2013-04-27 17:03:00,66.5,53.1,30.05,NW,320,6.0,8.0,62,0.00,SCT,SCT,0.02,WeatherDisplay:10.37,2013-04-27 22:03:00,
2013-04-27 17:09:00,65.5,53.0,30.05,NNW,327,10.0,12.0,64,0.00,SCT,SCT,0.02,WeatherDisplay:10.37,2013-04-27 22:09:00,
2013-04-27 17:15:00,65.5,53.4,30.04,WNW,299,8.0,9.0,65,0.00,SCT,SCT,0.02,WeatherDisplay:10.37,2013-04-27 22:15:00,
2013-04-27 17:21:00,64.6,52.6,30.04,WNW,296,5.0,7.0,65,0.00,SCT,SCT,0.02,WeatherDisplay:10.37,2013-04-27 22:21:00,
2013-04-27 17:27:00,66.3,53.3,30.03,WNW,292,3.0,5.0,63,0.00,SCT,SCT,0.02,WeatherDisplay:10.37,2013-04-27 22:27:00,
2013-04-27 17:33:00,65.8,53.3,30.03,WNW,296,7.0,9.0,64,0.00,SCT,SCT,0.02,WeatherDisplay:10.37,2013-04-27 22:33:00,
2013-04-27 17:39:00,66.1,53.2,30.03,WNW,295,5.0,7.0,63,0.00,SCT,SCT,0.02,WeatherDisplay:10.37,2013-04-27 22:39:00,
2013-04-27 17:45:00,66.2,53.2,30.03,NW,305,3.0,6.0,63,0.00,SCT,SCT,0.02,WeatherDisplay:10.37,2013-04-27 22:45:00,
2013-04-27 17:51:00,67.0,54.0,30.03,WNW,296,2.0,7.0,63,0.00,SCT,SCT,0.02,WeatherDisplay:10.37,2013-04-27 22:51:00,
2013-04-27 17:57:00,68.7,53.3,30.03,NW,310,7.0,7.0,58,0.00,SCT,SCT,0.02,WeatherDisplay:10.37,2013-04-27 22:57:00,
2013-04-27 18:03:00,70.7,53.2,30.03,WNW,283,5.0,7.0,54,0.00,FEW,FEW,0.02,WeatherDisplay:10.37,2013-04-27 23:03:00,
2013-04-27 18:09:00,69.7,53.3,30.03,WNW,291,3.0,6.0,56,0.00,FEW,FEW,0.02,WeatherDisplay:10.37,2013-04-27 23:09:00,
2013-04-27 18:15:00,69.7,52.8,30.02,NNW,334,2.0,4.0,55,0.00,FEW,FEW,0.02,WeatherDisplay:10.37,2013-04-27 23:15:00,
2013-04-27 18:21:00,70.7,52.2,30.02,NW,323,0.0,2.0,52,0.00,FEW,FEW,0.02,WeatherDisplay:10.37,2013-04-27 23:21:00,
2013-04-27 18:27:00,69.6,51.7,30.02,West,277,5.0,8.0,53,0.00,FEW,FEW,0.02,WeatherDisplay:10.37,2013-04-27 23:27:00,
2013-04-27 18:33:00,69.7,52.3,30.02,WNW,294,2.0,6.0,54,0.00,FEW,FEW,0.02,WeatherDisplay:10.37,2013-04-27 23:33:00,
2013-04-27 18:39:00,70.1,52.2,30.02,WNW,299,5.0,7.0,53,0.00,FEW,FEW,0.02,WeatherDisplay:10.37,2013-04-27 23:39:00,
2013-04-27 18:45:00,70.4,52.5,30.02,WNW,296,5.0,7.0,53,0.00,FEW,FEW,0.02,WeatherDisplay:10.37,2013-04-27 23:45:00,
2013-04-27 18:51:00,69.4,52.5,30.02,WNW,296,5.0,7.0,55,0.00,FEW,FEW,0.02,WeatherDisplay:10.37,2013-04-27 23:51:00,
2013-04-27 18:57:00,70.2,52.2,30.02,WNW,288,5.0,5.0,53,0.00,FEW,FEW,0.02,WeatherDisplay:10.37,2013-04-27 23:57:00,
2013-04-27 19:03:00,70.0,52.1,30.02,WNW,285,1.0,4.0,53,0.00,FEW,FEW,0.02,WeatherDisplay:10.37,2013-04-28 00:03:00,
2013-04-27 19:09:00,68.8,52.4,30.02,NW,309,2.0,4.0,56,0.00,FEW,FEW,0.02,WeatherDisplay:10.37,2013-04-28 00:09:00,
2013-04-27 19:15:00,69.2,52.3,30.02,NW,306,3.0,7.0,55,0.00,FEW,FEW,0.02,WeatherDisplay:10.37,2013-04-28 00:15:00,
2013-04-27 19:21:00,69.9,52.0,30.02,WNW,288,2.0,5.0,53,0.00,FEW,FEW,0.02,WeatherDisplay:10.37,2013-04-28 00:21:00,
2013-04-27 19:27:00,69.7,51.8,30.02,WNW,294,3.0,6.0,53,0.00,FEW,FEW,0.02,WeatherDisplay:10.37,2013-04-28 00:27:00,
2013-04-27 19:33:00,68.8,52.0,30.02,WNW,298,1.0,4.0,55,0.00,FEW,FEW,0.02,WeatherDisplay:10.37,2013-04-28 00:33:00,
2013-04-27 19:39:00,68.9,52.5,30.01,WNW,296,3.0,5.0,56,0.00,FEW,FEW,0.02,WeatherDisplay:10.37,2013-04-28 00:39:00,
2013-04-27 19:45:00,68.2,52.4,30.01,WNW,294,1.0,3.0,57,0.00,FEW,FEW,0.02,WeatherDisplay:10.37,2013-04-28 00:45:00,
2013-04-27 19:51:00,67.4,52.1,30.01,WSW,241,0.0,0.0,58,0.00,FEW,FEW,0.02,WeatherDisplay:10.37,2013-04-28 00:51:00,
2013-04-27 19:57:00,66.1,52.3,30.01,SE,144,3.0,5.0,61,0.00,FEW,FEW,0.02,WeatherDisplay:10.37,2013-04-28 00:57:00,
2013-04-27 20:03:00,64.9,52.4,30.00,SE,130,2.0,3.0,64,0.00,FEW,FEW,0.02,WeatherDisplay:10.37,2013-04-28 01:03:00,
2013-04-27 20:09:00,64.6,52.1,30.00,SE,125,0.0,2.0,64,0.00,FEW,FEW,0.02,WeatherDisplay:10.37,2013-04-28 01:09:00,
2013-04-27 20:15:00,63.5,51.9,30.01,SE,124,1.0,2.0,66,0.00,FEW,FEW,0.02,WeatherDisplay:10.37,2013-04-28 01:15:00,
2013-04-27 20:21:00,62.8,52.0,30.01,SE,128,0.0,0.0,68,0.00,FEW,FEW,0.02,WeatherDisplay:10.37,2013-04-28 01:21:00,
2013-04-27 20:27:00,62.1,51.8,30.01,ESE,111,0.0,0.0,69,0.00,FEW,FEW,0.02,WeatherDisplay:10.37,2013-04-28 01:27:00,
2013-04-27 20:33:00,61.4,51.9,30.01,ESE,112,0.0,0.0,71,0.00,FEW,FEW,0.02,WeatherDisplay:10.37,2013-04-28 01:33:00,
2013-04-27 20:39:00,60.5,51.4,30.01,ESE,112,0.0,0.0,72,0.00,FEW,FEW,0.02,WeatherDisplay:10.37,2013-04-28 01:39:00,
2013-04-27 20:45:00,59.7,51.8,30.01,SE,134,0.0,2.0,75,0.00,FEW,FEW,0.02,WeatherDisplay:10.37,2013-04-28 01:45:00,
2013-04-27 20:51:00,58.3,51.4,30.01,ESE,119,5.0,6.0,78,0.00,FEW,FEW,0.02,WeatherDisplay:10.37,2013-04-28 01:51:00,
2013-04-27 20:57:00,58.1,51.9,30.01,SE,142,3.0,9.0,80,0.00,FEW,FEW,0.02,WeatherDisplay:10.37,2013-04-28 01:57:00,
2013-04-27 21:03:00,57.8,52.0,30.01,SE,144,3.0,5.0,81,0.00,FEW,FEW,0.02,WeatherDisplay:10.37,2013-04-28 02:03:00,
2013-04-27 21:09:00,57.4,51.6,30.01,SE,137,2.0,3.0,81,0.00,FEW,FEW,0.02,WeatherDisplay:10.37,2013-04-28 02:09:00,
2013-04-27 21:15:00,57.1,51.6,30.01,ESE,119,3.0,3.0,82,0.00,FEW,FEW,0.02,WeatherDisplay:10.37,2013-04-28 02:15:00,
2013-04-27 21:21:00,56.7,51.2,30.01,SE,128,2.0,3.0,82,0.00,FEW,FEW,0.02,WeatherDisplay:10.37,2013-04-28 02:21:00,
2013-04-27 21:27:00,56.3,51.5,30.01,SE,141,2.0,3.0,84,0.00,FEW,FEW,0.02,WeatherDisplay:10.37,2013-04-28 02:27:00,
2013-04-27 21:33:00,56.3,51.5,30.01,SE,137,3.0,4.0,84,0.00,FEW,FEW,0.02,WeatherDisplay:10.37,2013-04-28 02:33:00,
2013-04-27 21:39:00,56.0,51.5,30.02,SE,128,0.0,0.0,85,0.00,FEW,FEW,0.02,WeatherDisplay:10.37,2013-04-28 02:39:00,
2013-04-27 21:45:00,55.6,51.1,30.02,SE,126,1.0,3.0,85,0.00,FEW,FEW,0.02,WeatherDisplay:10.37,2013-04-28 02:45:00,
2013-04-27 21:51:00,55.3,51.2,30.02,ESE,113,2.0,3.0,86,0.00,FEW,FEW,0.02,WeatherDisplay:10.37,2013-04-28 02:51:00,
2013-04-27 21:57:00,54.9,50.8,30.02,ESE,115,0.0,0.0,86,0.00,FEW,FEW,0.02,WeatherDisplay:10.37,2013-04-28 02:57:00,
2013-04-27 22:03:00,54.7,50.9,30.02,SE,131,0.0,0.0,87,0.00,CLR,CLR,0.02,WeatherDisplay:10.37,2013-04-28 03:03:00,
2013-04-27 22:09:00,54.4,50.6,30.02,ESE,123,0.0,0.0,87,0.00,CLR,CLR,0.02,WeatherDisplay:10.37,2013-04-28 03:09:00,
2013-04-27 22:15:00,54.0,50.5,30.02,SE,125,0.0,0.0,88,0.00,CLR,CLR,0.02,WeatherDisplay:10.37,2013-04-28 03:15:00,
2013-04-27 22:21:00,53.7,50.3,30.02,SE,131,0.0,0.0,88,0.00,CLR,CLR,0.02,WeatherDisplay:10.37,2013-04-28 03:21:00,
2013-04-27 22:27:00,53.4,50.2,30.02,SE,129,0.0,0.0,89,0.00,CLR,CLR,0.02,WeatherDisplay:10.37,2013-04-28 03:27:00,
2013-04-27 22:33:00,53.3,50.4,30.02,ESE,116,0.0,4.0,90,0.00,CLR,CLR,0.02,WeatherDisplay:10.37,2013-04-28 03:33:00,
2013-04-27 22:39:00,53.1,50.5,30.02,ESE,113,0.0,3.0,91,0.00,CLR,CLR,0.02,WeatherDisplay:10.37,2013-04-28 03:39:00,
2013-04-27 22:45:00,52.7,50.2,30.02,ESE,109,0.0,0.0,91,0.00,CLR,CLR,0.02,WeatherDisplay:10.37,2013-04-28 03:45:00,
2013-04-27 22:51:00,52.6,50.0,30.02,East,101,0.0,0.0,91,0.00,CLR,CLR,0.02,WeatherDisplay:10.37,2013-04-28 03:51:00,
2013-04-27 22:57:00,52.4,50.1,30.02,ESE,122,0.0,0.0,92,0.00,CLR,CLR,0.02,WeatherDisplay:10.37,2013-04-28 03:57:00,
2013-04-27 23:03:00,52.2,49.9,30.02,SE,127,0.0,0.0,92,0.00,CLR,CLR,0.02,WeatherDisplay:10.37,2013-04-28 04:03:00,
2013-04-27 23:06:00,52.2,50.2,30.02,SE,135,0.0,0.0,93,0.00,CLR,CLR,0.02,WeatherDisplay:10.37,2013-04-28 04:06:00,
2013-04-27 23:09:00,52.2,50.2,30.02,SE,135,0.0,0.0,93,0.00,CLR,CLR,0.02,WeatherDisplay:10.37,2013-04-28 04:09:00,
2013-04-27 23:15:00,51.8,49.8,30.02,SE,135,0.0,0.0,93,0.00,CLR,CLR,0.02,WeatherDisplay:10.37,2013-04-28 04:15:00,
2013-04-27 23:21:00,51.7,49.7,30.02,SE,125,0.0,0.0,93,0.00,CLR,CLR,0.02,WeatherDisplay:10.37,2013-04-28 04:21:00,
2013-04-27 23:27:00,51.4,49.8,30.02,SE,137,0.0,0.0,94,0.00,CLR,CLR,0.02,WeatherDisplay:10.37,2013-04-28 04:27:00,
2013-04-27 23:33:00,51.3,49.6,30.02,SE,134,0.0,0.0,94,0.00,CLR,CLR,0.02,WeatherDisplay:10.37,2013-04-28 04:33:00,
2013-04-27 23:39:00,51.1,49.4,30.02,SE,134,0.0,0.0,94,0.00,CLR,CLR,0.02,WeatherDisplay:10.37,2013-04-28 04:39:00,
2013-04-27 23:45:00,50.8,49.5,30.02,SSE,148,0.0,0.0,95,0.00,CLR,CLR,0.02,WeatherDisplay:10.37,2013-04-28 04:45:00,
2013-04-27 23:51:00,50.6,49.2,30.01,SE,130,0.0,0.0,95,0.00,CLR,CLR,0.02,WeatherDisplay:10.37,2013-04-28 04:51:00,
2013-04-27 23:57:00,50.6,49.2,30.01,SE,131,0.0,0.0,95,0.00,CLR,CLR,0.02,WeatherDisplay:10.37,2013-04-28 04:57:00,